sensor_id;sensor_type;location;lat;lon;timestamp;temperature;humidity
19622;DHT22;9958;33.196;-97.114;2022-12-04T00:01:03;10.60;72.90
19622;DHT22;9958;33.196;-97.114;2022-12-04T00:03:32;10.50;72.30
19622;DHT22;9958;33.196;-97.114;2022-12-04T00:06:04;10.40;73.60
19622;DHT22;9958;33.196;-97.114;2022-12-04T00:08:33;10.40;75.60
19622;DHT22;9958;33.196;-97.114;2022-12-04T00:11:04;10.30;76.70
19622;DHT22;9958;33.196;-97.114;2022-12-04T00:13:34;10.30;78.00
19622;DHT22;9958;33.196;-97.114;2022-12-04T00:16:04;10.20;78.00
19622;DHT22;9958;33.196;-97.114;2022-12-04T00:18:32;10.20;74.60
19622;DHT22;9958;33.196;-97.114;2022-12-04T00:21:03;10.20;73.00
19622;DHT22;9958;33.196;-97.114;2022-12-04T00:23:31;10.20;73.10
19622;DHT22;9958;33.196;-97.114;2022-12-04T00:26:00;10.20;70.60
19622;DHT22;9958;33.196;-97.114;2022-12-04T00:28:29;10.20;70.20
19622;DHT22;9958;33.196;-97.114;2022-12-04T00:30:59;10.30;70.00
19622;DHT22;9958;33.196;-97.114;2022-12-04T00:33:27;10.30;70.70
19622;DHT22;9958;33.196;-97.114;2022-12-04T00:36:00;10.40;70.10
19622;DHT22;9958;33.196;-97.114;2022-12-04T00:38:28;10.40;69.50
19622;DHT22;9958;33.196;-97.114;2022-12-04T00:40:56;10.40;70.10
19622;DHT22;9958;33.196;-97.114;2022-12-04T00:43:26;10.50;70.60
19622;DHT22;9958;33.196;-97.114;2022-12-04T00:45:55;10.50;70.20
19622;DHT22;9958;33.196;-97.114;2022-12-04T00:48:25;10.50;69.40
19622;DHT22;9958;33.196;-97.114;2022-12-04T00:50:53;10.50;69.40
19622;DHT22;9958;33.196;-97.114;2022-12-04T00:53:23;10.50;68.90
19622;DHT22;9958;33.196;-97.114;2022-12-04T00:55:52;10.60;69.00
19622;DHT22;9958;33.196;-97.114;2022-12-04T00:58:20;10.60;69.20
19622;DHT22;9958;33.196;-97.114;2022-12-04T01:00:49;10.60;67.80
19622;DHT22;9958;33.196;-97.114;2022-12-04T01:03:18;10.50;66.00
19622;DHT22;9958;33.196;-97.114;2022-12-04T01:05:48;10.60;66.60
19622;DHT22;9958;33.196;-97.114;2022-12-04T01:08:17;10.50;65.90
19622;DHT22;9958;33.196;-97.114;2022-12-04T01:10:45;10.50;65.60
19622;DHT22;9958;33.196;-97.114;2022-12-04T01:13:14;10.50;65.80
19622;DHT22;9958;33.196;-97.114;2022-12-04T01:15:42;10.50;64.90
19622;DHT22;9958;33.196;-97.114;2022-12-04T01:18:13;10.50;65.00
19622;DHT22;9958;33.196;-97.114;2022-12-04T01:20:47;10.50;66.00
19622;DHT22;9958;33.196;-97.114;2022-12-04T01:23:17;10.50;64.40
19622;DHT22;9958;33.196;-97.114;2022-12-04T01:25:56;10.40;64.10
19622;DHT22;9958;33.196;-97.114;2022-12-04T01:28:26;10.50;65.10
19622;DHT22;9958;33.196;-97.114;2022-12-04T01:31:02;10.50;64.90
19622;DHT22;9958;33.196;-97.114;2022-12-04T01:33:31;10.40;64.80
19622;DHT22;9958;33.196;-97.114;2022-12-04T01:36:07;10.40;65.20
19622;DHT22;9958;33.196;-97.114;2022-12-04T01:38:36;10.40;64.90
19622;DHT22;9958;33.196;-97.114;2022-12-04T01:41:05;10.40;65.40
19622;DHT22;9958;33.196;-97.114;2022-12-04T01:43:36;10.30;65.80
19622;DHT22;9958;33.196;-97.114;2022-12-04T01:46:05;10.40;65.80
19622;DHT22;9958;33.196;-97.114;2022-12-04T01:48:35;10.30;65.90
19622;DHT22;9958;33.196;-97.114;2022-12-04T01:51:09;10.30;65.90
19622;DHT22;9958;33.196;-97.114;2022-12-04T01:53:41;10.30;66.40
19622;DHT22;9958;33.196;-97.114;2022-12-04T01:56:10;10.20;66.50
19622;DHT22;9958;33.196;-97.114;2022-12-04T01:58:40;10.20;66.40
19622;DHT22;9958;33.196;-97.114;2022-12-04T02:01:09;10.10;66.50
19622;DHT22;9958;33.196;-97.114;2022-12-04T02:03:38;10.10;66.30
19622;DHT22;9958;33.196;-97.114;2022-12-04T02:06:08;10.10;65.70
19622;DHT22;9958;33.196;-97.114;2022-12-04T02:08:36;10.10;66.50
19622;DHT22;9958;33.196;-97.114;2022-12-04T02:11:12;10.10;66.20
19622;DHT22;9958;33.196;-97.114;2022-12-04T02:13:51;10.20;66.50
19622;DHT22;9958;33.196;-97.114;2022-12-04T02:16:24;10.10;66.50
19622;DHT22;9958;33.196;-97.114;2022-12-04T02:19:00;10.10;66.40
19622;DHT22;9958;33.196;-97.114;2022-12-04T02:21:36;10.10;66.80
19622;DHT22;9958;33.196;-97.114;2022-12-04T02:24:21;10.10;66.60
19622;DHT22;9958;33.196;-97.114;2022-12-04T02:26:58;10.00;66.10
19622;DHT22;9958;33.196;-97.114;2022-12-04T02:29:35;10.00;66.20
19622;DHT22;9958;33.196;-97.114;2022-12-04T02:32:12;10.00;66.10
19622;DHT22;9958;33.196;-97.114;2022-12-04T02:34:49;10.00;65.90
19622;DHT22;9958;33.196;-97.114;2022-12-04T02:37:28;10.00;66.00
19622;DHT22;9958;33.196;-97.114;2022-12-04T02:40:02;10.00;66.50
19622;DHT22;9958;33.196;-97.114;2022-12-04T02:42:38;10.00;66.60
19622;DHT22;9958;33.196;-97.114;2022-12-04T02:45:12;10.00;67.10
19622;DHT22;9958;33.196;-97.114;2022-12-04T02:47:45;10.00;67.50
19622;DHT22;9958;33.196;-97.114;2022-12-04T02:50:16;10.00;67.10
19622;DHT22;9958;33.196;-97.114;2022-12-04T02:52:51;10.00;67.20
19622;DHT22;9958;33.196;-97.114;2022-12-04T02:55:24;10.00;66.90
19622;DHT22;9958;33.196;-97.114;2022-12-04T02:57:58;10.00;67.50
19622;DHT22;9958;33.196;-97.114;2022-12-04T03:00:30;10.00;67.20
19622;DHT22;9958;33.196;-97.114;2022-12-04T03:03:01;10.00;67.10
19622;DHT22;9958;33.196;-97.114;2022-12-04T03:05:38;10.00;67.40
19622;DHT22;9958;33.196;-97.114;2022-12-04T03:08:09;9.90;68.10
19622;DHT22;9958;33.196;-97.114;2022-12-04T03:10:44;9.90;68.10
19622;DHT22;9958;33.196;-97.114;2022-12-04T03:13:16;9.90;69.00
19622;DHT22;9958;33.196;-97.114;2022-12-04T03:15:53;9.90;68.70
19622;DHT22;9958;33.196;-97.114;2022-12-04T03:18:27;9.90;69.60
19622;DHT22;9958;33.196;-97.114;2022-12-04T03:20:58;9.80;69.00
19622;DHT22;9958;33.196;-97.114;2022-12-04T03:23:32;9.80;69.20
19622;DHT22;9958;33.196;-97.114;2022-12-04T03:26:05;9.70;68.60
19622;DHT22;9958;33.196;-97.114;2022-12-04T03:28:49;9.70;68.90
19622;DHT22;9958;33.196;-97.114;2022-12-04T03:31:30;9.70;69.30
19622;DHT22;9958;33.196;-97.114;2022-12-04T03:34:03;9.70;69.30
19622;DHT22;9958;33.196;-97.114;2022-12-04T03:36:36;9.70;70.10
19622;DHT22;9958;33.196;-97.114;2022-12-04T03:39:11;9.70;70.20
19622;DHT22;9958;33.196;-97.114;2022-12-04T03:41:52;9.70;70.60
19622;DHT22;9958;33.196;-97.114;2022-12-04T03:44:24;9.70;69.30
19622;DHT22;9958;33.196;-97.114;2022-12-04T03:46:58;9.70;68.70
19622;DHT22;9958;33.196;-97.114;2022-12-04T03:49:33;9.70;69.40
19622;DHT22;9958;33.196;-97.114;2022-12-04T03:52:11;9.70;69.10
19622;DHT22;9958;33.196;-97.114;2022-12-04T03:54:45;9.70;69.40
19622;DHT22;9958;33.196;-97.114;2022-12-04T03:57:18;9.70;69.40
19622;DHT22;9958;33.196;-97.114;2022-12-04T03:59:51;9.60;68.30
19622;DHT22;9958;33.196;-97.114;2022-12-04T04:02:24;9.70;69.40
19622;DHT22;9958;33.196;-97.114;2022-12-04T04:04:57;9.70;69.60
19622;DHT22;9958;33.196;-97.114;2022-12-04T04:07:31;9.60;68.40
19622;DHT22;9958;33.196;-97.114;2022-12-04T04:10:05;9.60;68.90
19622;DHT22;9958;33.196;-97.114;2022-12-04T04:12:38;9.60;69.30
19622;DHT22;9958;33.196;-97.114;2022-12-04T04:15:10;9.60;69.30
19622;DHT22;9958;33.196;-97.114;2022-12-04T04:17:58;9.60;69.20
19622;DHT22;9958;33.196;-97.114;2022-12-04T04:20:49;9.60;69.80
19622;DHT22;9958;33.196;-97.114;2022-12-04T04:23:40;9.60;69.30
19622;DHT22;9958;33.196;-97.114;2022-12-04T04:26:26;9.60;69.20
19622;DHT22;9958;33.196;-97.114;2022-12-04T04:28:56;9.60;69.40
19622;DHT22;9958;33.196;-97.114;2022-12-04T04:31:26;9.60;70.20
19622;DHT22;9958;33.196;-97.114;2022-12-04T04:34:03;9.60;70.90
19622;DHT22;9958;33.196;-97.114;2022-12-04T04:36:40;9.60;70.10
19622;DHT22;9958;33.196;-97.114;2022-12-04T04:39:18;9.70;70.20
19622;DHT22;9958;33.196;-97.114;2022-12-04T04:41:52;9.60;70.40
19622;DHT22;9958;33.196;-97.114;2022-12-04T04:44:25;9.60;70.60
19622;DHT22;9958;33.196;-97.114;2022-12-04T04:47:00;9.60;71.70
19622;DHT22;9958;33.196;-97.114;2022-12-04T04:49:33;9.60;71.40
19622;DHT22;9958;33.196;-97.114;2022-12-04T04:52:03;9.50;70.20
19622;DHT22;9958;33.196;-97.114;2022-12-04T04:54:33;9.60;71.20
19622;DHT22;9958;33.196;-97.114;2022-12-04T04:57:03;9.60;71.40
19622;DHT22;9958;33.196;-97.114;2022-12-04T04:59:31;9.60;71.20
19622;DHT22;9958;33.196;-97.114;2022-12-04T05:02:00;9.60;71.20
19622;DHT22;9958;33.196;-97.114;2022-12-04T05:04:28;9.60;72.10
19622;DHT22;9958;33.196;-97.114;2022-12-04T05:06:58;9.60;72.40
19622;DHT22;9958;33.196;-97.114;2022-12-04T05:09:26;9.60;72.50
19622;DHT22;9958;33.196;-97.114;2022-12-04T05:11:54;9.60;72.40
19622;DHT22;9958;33.196;-97.114;2022-12-04T05:14:23;9.60;71.40
19622;DHT22;9958;33.196;-97.114;2022-12-04T05:16:51;9.60;72.00
19622;DHT22;9958;33.196;-97.114;2022-12-04T05:19:19;9.50;71.60
19622;DHT22;9958;33.196;-97.114;2022-12-04T05:22:06;9.50;72.00
19622;DHT22;9958;33.196;-97.114;2022-12-04T05:24:34;9.50;72.00
19622;DHT22;9958;33.196;-97.114;2022-12-04T05:27:03;9.50;73.00
19622;DHT22;9958;33.196;-97.114;2022-12-04T05:29:31;9.50;73.30
19622;DHT22;9958;33.196;-97.114;2022-12-04T05:32:00;9.50;72.60
19622;DHT22;9958;33.196;-97.114;2022-12-04T05:34:28;9.50;73.70
19622;DHT22;9958;33.196;-97.114;2022-12-04T05:36:56;9.50;73.20
19622;DHT22;9958;33.196;-97.114;2022-12-04T05:39:26;9.50;73.60
19622;DHT22;9958;33.196;-97.114;2022-12-04T05:41:54;9.50;74.90
19622;DHT22;9958;33.196;-97.114;2022-12-04T05:44:23;9.40;74.50
19622;DHT22;9958;33.196;-97.114;2022-12-04T05:46:51;9.40;74.90
19622;DHT22;9958;33.196;-97.114;2022-12-04T05:49:19;9.50;74.50
19622;DHT22;9958;33.196;-97.114;2022-12-04T05:51:49;9.50;75.00
19622;DHT22;9958;33.196;-97.114;2022-12-04T05:54:17;9.50;75.00
19622;DHT22;9958;33.196;-97.114;2022-12-04T05:56:47;9.50;75.20
19622;DHT22;9958;33.196;-97.114;2022-12-04T05:59:16;9.50;75.00
19622;DHT22;9958;33.196;-97.114;2022-12-04T06:01:44;9.50;75.00
19622;DHT22;9958;33.196;-97.114;2022-12-04T06:04:12;9.40;74.90
19622;DHT22;9958;33.196;-97.114;2022-12-04T06:06:41;9.40;74.90
19622;DHT22;9958;33.196;-97.114;2022-12-04T06:09:10;9.40;76.20
19622;DHT22;9958;33.196;-97.114;2022-12-04T06:11:40;9.40;76.00
19622;DHT22;9958;33.196;-97.114;2022-12-04T06:14:11;9.50;76.10
19622;DHT22;9958;33.196;-97.114;2022-12-04T06:16:42;9.40;75.30
19622;DHT22;9958;33.196;-97.114;2022-12-04T06:19:12;9.40;76.30
19622;DHT22;9958;33.196;-97.114;2022-12-04T06:21:41;9.40;76.70
19622;DHT22;9958;33.196;-97.114;2022-12-04T06:24:12;9.40;76.00
19622;DHT22;9958;33.196;-97.114;2022-12-04T06:26:41;9.40;76.20
19622;DHT22;9958;33.196;-97.114;2022-12-04T06:29:12;9.30;76.30
19622;DHT22;9958;33.196;-97.114;2022-12-04T06:31:40;9.30;77.10
19622;DHT22;9958;33.196;-97.114;2022-12-04T06:34:10;9.30;77.70
19622;DHT22;9958;33.196;-97.114;2022-12-04T06:36:38;9.30;77.20
19622;DHT22;9958;33.196;-97.114;2022-12-04T06:39:07;9.30;77.00
19622;DHT22;9958;33.196;-97.114;2022-12-04T06:41:36;9.30;77.90
19622;DHT22;9958;33.196;-97.114;2022-12-04T06:44:04;9.20;78.00
19622;DHT22;9958;33.196;-97.114;2022-12-04T06:46:34;9.20;77.60
19622;DHT22;9958;33.196;-97.114;2022-12-04T06:49:02;9.30;77.90
19622;DHT22;9958;33.196;-97.114;2022-12-04T06:51:32;9.20;77.50
19622;DHT22;9958;33.196;-97.114;2022-12-04T06:54:01;9.20;77.50
19622;DHT22;9958;33.196;-97.114;2022-12-04T06:56:31;9.20;77.90
19622;DHT22;9958;33.196;-97.114;2022-12-04T06:59:01;9.20;77.20
19622;DHT22;9958;33.196;-97.114;2022-12-04T07:01:31;9.20;77.90
19622;DHT22;9958;33.196;-97.114;2022-12-04T07:04:02;9.20;78.50
19622;DHT22;9958;33.196;-97.114;2022-12-04T07:06:32;9.20;77.60
19622;DHT22;9958;33.196;-97.114;2022-12-04T07:09:02;9.10;77.10
19622;DHT22;9958;33.196;-97.114;2022-12-04T07:11:32;9.10;76.10
19622;DHT22;9958;33.196;-97.114;2022-12-04T07:14:00;9.10;76.70
19622;DHT22;9958;33.196;-97.114;2022-12-04T07:16:29;9.10;76.00
19622;DHT22;9958;33.196;-97.114;2022-12-04T07:18:57;9.20;75.70
19622;DHT22;9958;33.196;-97.114;2022-12-04T07:21:28;9.10;75.90
19622;DHT22;9958;33.196;-97.114;2022-12-04T07:23:58;9.10;76.10
19622;DHT22;9958;33.196;-97.114;2022-12-04T07:26:27;9.20;76.70
19622;DHT22;9958;33.196;-97.114;2022-12-04T07:28:56;9.20;75.90
19622;DHT22;9958;33.196;-97.114;2022-12-04T07:31:26;9.20;76.10
19622;DHT22;9958;33.196;-97.114;2022-12-04T07:33:55;9.20;75.80
19622;DHT22;9958;33.196;-97.114;2022-12-04T07:36:24;9.20;76.50
19622;DHT22;9958;33.196;-97.114;2022-12-04T07:38:54;9.30;77.50
19622;DHT22;9958;33.196;-97.114;2022-12-04T07:41:22;9.20;77.00
19622;DHT22;9958;33.196;-97.114;2022-12-04T07:43:51;9.20;77.30
19622;DHT22;9958;33.196;-97.114;2022-12-04T07:46:22;9.20;77.40
19622;DHT22;9958;33.196;-97.114;2022-12-04T07:48:50;9.20;77.60
19622;DHT22;9958;33.196;-97.114;2022-12-04T07:51:20;9.20;78.50
19622;DHT22;9958;33.196;-97.114;2022-12-04T07:53:50;9.20;79.20
19622;DHT22;9958;33.196;-97.114;2022-12-04T07:56:21;9.20;79.50
19622;DHT22;9958;33.196;-97.114;2022-12-04T07:58:49;9.30;80.20
19622;DHT22;9958;33.196;-97.114;2022-12-04T08:01:19;9.20;79.90
19622;DHT22;9958;33.196;-97.114;2022-12-04T08:03:51;9.20;80.10
19622;DHT22;9958;33.196;-97.114;2022-12-04T08:06:20;9.20;80.40
19622;DHT22;9958;33.196;-97.114;2022-12-04T08:08:49;9.20;80.70
19622;DHT22;9958;33.196;-97.114;2022-12-04T08:11:20;9.20;80.40
19622;DHT22;9958;33.196;-97.114;2022-12-04T08:13:53;9.20;78.60
19622;DHT22;9958;33.196;-97.114;2022-12-04T08:16:23;9.20;78.70
19622;DHT22;9958;33.196;-97.114;2022-12-04T08:18:52;9.20;79.40
19622;DHT22;9958;33.196;-97.114;2022-12-04T08:21:23;9.20;79.70
19622;DHT22;9958;33.196;-97.114;2022-12-04T08:23:53;9.20;79.00
19622;DHT22;9958;33.196;-97.114;2022-12-04T08:26:24;9.20;80.20
19622;DHT22;9958;33.196;-97.114;2022-12-04T08:28:54;9.20;79.80
19622;DHT22;9958;33.196;-97.114;2022-12-04T08:31:24;9.10;79.30
19622;DHT22;9958;33.196;-97.114;2022-12-04T08:33:54;9.10;79.30
19622;DHT22;9958;33.196;-97.114;2022-12-04T08:36:23;9.10;79.70
19622;DHT22;9958;33.196;-97.114;2022-12-04T08:38:52;9.10;80.80
19622;DHT22;9958;33.196;-97.114;2022-12-04T08:41:23;9.10;80.30
19622;DHT22;9958;33.196;-97.114;2022-12-04T08:43:52;9.10;80.10
19622;DHT22;9958;33.196;-97.114;2022-12-04T08:46:21;9.10;80.30
19622;DHT22;9958;33.196;-97.114;2022-12-04T08:48:50;9.10;80.30
19622;DHT22;9958;33.196;-97.114;2022-12-04T08:51:19;9.10;80.60
19622;DHT22;9958;33.196;-97.114;2022-12-04T08:53:52;9.10;80.30
19622;DHT22;9958;33.196;-97.114;2022-12-04T08:56:22;9.10;80.30
19622;DHT22;9958;33.196;-97.114;2022-12-04T08:58:51;9.10;80.20
19622;DHT22;9958;33.196;-97.114;2022-12-04T09:01:19;9.10;80.30
19622;DHT22;9958;33.196;-97.114;2022-12-04T09:03:47;9.10;81.10
19622;DHT22;9958;33.196;-97.114;2022-12-04T09:06:16;9.10;81.80
19622;DHT22;9958;33.196;-97.114;2022-12-04T09:08:44;9.10;81.40
19622;DHT22;9958;33.196;-97.114;2022-12-04T09:11:15;9.10;80.70
19622;DHT22;9958;33.196;-97.114;2022-12-04T09:13:45;9.10;80.30
19622;DHT22;9958;33.196;-97.114;2022-12-04T09:16:15;9.10;80.40
19622;DHT22;9958;33.196;-97.114;2022-12-04T09:18:45;9.00;80.20
19622;DHT22;9958;33.196;-97.114;2022-12-04T09:21:15;9.00;80.30
19622;DHT22;9958;33.196;-97.114;2022-12-04T09:23:43;9.00;80.60
19622;DHT22;9958;33.196;-97.114;2022-12-04T09:26:21;9.00;80.50
19622;DHT22;9958;33.196;-97.114;2022-12-04T09:28:52;9.00;80.20
19622;DHT22;9958;33.196;-97.114;2022-12-04T09:31:21;9.00;80.20
19622;DHT22;9958;33.196;-97.114;2022-12-04T09:33:50;9.00;81.40
19622;DHT22;9958;33.196;-97.114;2022-12-04T09:36:18;9.00;80.50
19622;DHT22;9958;33.196;-97.114;2022-12-04T09:38:48;9.00;80.30
19622;DHT22;9958;33.196;-97.114;2022-12-04T09:44:15;8.90;80.10
19622;DHT22;9958;33.196;-97.114;2022-12-04T09:46:50;8.90;80.10
19622;DHT22;9958;33.196;-97.114;2022-12-04T09:49:22;8.90;79.70
19622;DHT22;9958;33.196;-97.114;2022-12-04T09:51:51;8.90;80.60
19622;DHT22;9958;33.196;-97.114;2022-12-04T09:54:23;8.90;81.10
19622;DHT22;9958;33.196;-97.114;2022-12-04T09:56:57;8.90;80.60
19622;DHT22;9958;33.196;-97.114;2022-12-04T09:59:29;8.90;80.10
19622;DHT22;9958;33.196;-97.114;2022-12-04T10:02:02;8.80;79.40
19622;DHT22;9958;33.196;-97.114;2022-12-04T10:04:40;8.80;78.50
19622;DHT22;9958;33.196;-97.114;2022-12-04T10:07:13;8.70;78.50
19622;DHT22;9958;33.196;-97.114;2022-12-04T10:09:49;8.80;79.10
19622;DHT22;9958;33.196;-97.114;2022-12-04T10:12:24;8.80;79.20
19622;DHT22;9958;33.196;-97.114;2022-12-04T10:15:03;8.80;79.50
19622;DHT22;9958;33.196;-97.114;2022-12-04T10:18:03;8.80;79.60
19622;DHT22;9958;33.196;-97.114;2022-12-04T10:23:36;8.70;80.30
19622;DHT22;9958;33.196;-97.114;2022-12-04T10:26:12;8.70;80.00
19622;DHT22;9958;33.196;-97.114;2022-12-04T10:28:44;8.70;79.60
19622;DHT22;9958;33.196;-97.114;2022-12-04T10:31:15;8.60;78.80
19622;DHT22;9958;33.196;-97.114;2022-12-04T10:33:46;8.60;79.30
19622;DHT22;9958;33.196;-97.114;2022-12-04T10:36:17;8.70;79.20
19622;DHT22;9958;33.196;-97.114;2022-12-04T10:38:48;8.60;78.70
19622;DHT22;9958;33.196;-97.114;2022-12-04T10:41:25;8.60;79.80
19622;DHT22;9958;33.196;-97.114;2022-12-04T10:43:54;8.60;79.50
19622;DHT22;9958;33.196;-97.114;2022-12-04T10:46:29;8.60;79.50
19622;DHT22;9958;33.196;-97.114;2022-12-04T10:49:00;8.60;80.30
19622;DHT22;9958;33.196;-97.114;2022-12-04T10:51:37;8.60;80.40
19622;DHT22;9958;33.196;-97.114;2022-12-04T10:54:15;8.60;79.90
19622;DHT22;9958;33.196;-97.114;2022-12-04T10:56:56;8.50;79.10
19622;DHT22;9958;33.196;-97.114;2022-12-04T10:59:25;8.50;79.30
19622;DHT22;9958;33.196;-97.114;2022-12-04T11:02:01;8.60;79.50
19622;DHT22;9958;33.196;-97.114;2022-12-04T11:04:30;8.50;79.50
19622;DHT22;9958;33.196;-97.114;2022-12-04T11:07:02;8.50;80.80
19622;DHT22;9958;33.196;-97.114;2022-12-04T11:09:31;8.50;81.40
19622;DHT22;9958;33.196;-97.114;2022-12-04T11:12:14;8.50;81.60
19622;DHT22;9958;33.196;-97.114;2022-12-04T11:14:44;8.50;81.20
19622;DHT22;9958;33.196;-97.114;2022-12-04T11:17:17;8.50;81.60
19622;DHT22;9958;33.196;-97.114;2022-12-04T11:19:45;8.40;81.80
19622;DHT22;9958;33.196;-97.114;2022-12-04T11:22:15;8.40;81.00
19622;DHT22;9958;33.196;-97.114;2022-12-04T11:24:49;8.40;81.30
19622;DHT22;9958;33.196;-97.114;2022-12-04T11:27:22;8.40;81.50
19622;DHT22;9958;33.196;-97.114;2022-12-04T11:29:52;8.30;81.30
19622;DHT22;9958;33.196;-97.114;2022-12-04T11:32:25;8.30;81.40
19622;DHT22;9958;33.196;-97.114;2022-12-04T11:34:58;8.30;81.40
19622;DHT22;9958;33.196;-97.114;2022-12-04T11:37:29;8.30;81.60
19622;DHT22;9958;33.196;-97.114;2022-12-04T11:39:59;8.30;81.50
19622;DHT22;9958;33.196;-97.114;2022-12-04T11:42:29;8.30;82.30
19622;DHT22;9958;33.196;-97.114;2022-12-04T11:44:59;8.20;81.10
19622;DHT22;9958;33.196;-97.114;2022-12-04T11:47:31;8.20;81.30
19622;DHT22;9958;33.196;-97.114;2022-12-04T11:50:04;8.20;81.60
19622;DHT22;9958;33.196;-97.114;2022-12-04T11:52:56;8.30;81.90
19622;DHT22;9958;33.196;-97.114;2022-12-04T11:55:33;8.20;81.30
19622;DHT22;9958;33.196;-97.114;2022-12-04T11:58:22;8.30;81.50
19622;DHT22;9958;33.196;-97.114;2022-12-04T12:00:56;8.20;82.00
19622;DHT22;9958;33.196;-97.114;2022-12-04T12:03:33;8.30;82.40
19622;DHT22;9958;33.196;-97.114;2022-12-04T12:06:15;8.20;82.20
19622;DHT22;9958;33.196;-97.114;2022-12-04T12:08:55;8.20;82.90
19622;DHT22;9958;33.196;-97.114;2022-12-04T12:11:29;8.20;82.50
19622;DHT22;9958;33.196;-97.114;2022-12-04T12:14:06;8.30;83.10
19622;DHT22;9958;33.196;-97.114;2022-12-04T12:16:44;8.20;83.40
19622;DHT22;9958;33.196;-97.114;2022-12-04T12:22:33;8.30;83.60
19622;DHT22;9958;33.196;-97.114;2022-12-04T12:25:10;8.20;83.90
19622;DHT22;9958;33.196;-97.114;2022-12-04T12:28:01;8.20;83.90
19622;DHT22;9958;33.196;-97.114;2022-12-04T12:30:39;8.20;84.50
19622;DHT22;9958;33.196;-97.114;2022-12-04T12:33:16;8.20;85.10
19622;DHT22;9958;33.196;-97.114;2022-12-04T12:35:53;8.20;85.10
19622;DHT22;9958;33.196;-97.114;2022-12-04T12:38:27;8.20;85.10
19622;DHT22;9958;33.196;-97.114;2022-12-04T12:40:59;8.30;85.20
19622;DHT22;9958;33.196;-97.114;2022-12-04T12:43:31;8.20;85.10
19622;DHT22;9958;33.196;-97.114;2022-12-04T12:46:03;8.20;85.20
19622;DHT22;9958;33.196;-97.114;2022-12-04T12:48:36;8.20;85.70
19622;DHT22;9958;33.196;-97.114;2022-12-04T12:51:20;8.20;86.80
19622;DHT22;9958;33.196;-97.114;2022-12-04T12:53:53;8.20;87.10
19622;DHT22;9958;33.196;-97.114;2022-12-04T12:56:30;8.20;87.40
19622;DHT22;9958;33.196;-97.114;2022-12-04T12:59:03;8.20;87.20
19622;DHT22;9958;33.196;-97.114;2022-12-04T13:01:40;8.30;87.60
19622;DHT22;9958;33.196;-97.114;2022-12-04T13:04:14;8.30;87.90
19622;DHT22;9958;33.196;-97.114;2022-12-04T13:06:52;8.30;87.90
19622;DHT22;9958;33.196;-97.114;2022-12-04T13:09:23;8.30;88.20
19622;DHT22;9958;33.196;-97.114;2022-12-04T13:11:57;8.30;88.30
19622;DHT22;9958;33.196;-97.114;2022-12-04T13:14:26;8.30;88.20
19622;DHT22;9958;33.196;-97.114;2022-12-04T13:16:57;8.30;89.60
19622;DHT22;9958;33.196;-97.114;2022-12-04T13:19:30;8.40;90.00
19622;DHT22;9958;33.196;-97.114;2022-12-04T13:22:10;8.40;89.60
19622;DHT22;9958;33.196;-97.114;2022-12-04T13:25:05;8.40;89.50
19622;DHT22;9958;33.196;-97.114;2022-12-04T13:27:45;8.40;90.30
19622;DHT22;9958;33.196;-97.114;2022-12-04T13:30:19;8.50;90.40
19622;DHT22;9958;33.196;-97.114;2022-12-04T13:33:10;8.50;91.10
19622;DHT22;9958;33.196;-97.114;2022-12-04T13:36:01;8.50;90.90
19622;DHT22;9958;33.196;-97.114;2022-12-04T13:38:42;8.60;90.40
19622;DHT22;9958;33.196;-97.114;2022-12-04T13:41:15;8.60;90.50
19622;DHT22;9958;33.196;-97.114;2022-12-04T13:43:46;8.60;90.40
19622;DHT22;9958;33.196;-97.114;2022-12-04T13:46:28;8.60;90.40
19622;DHT22;9958;33.196;-97.114;2022-12-04T13:49:08;8.60;90.60
19622;DHT22;9958;33.196;-97.114;2022-12-04T13:51:37;8.70;90.60
19622;DHT22;9958;33.196;-97.114;2022-12-04T13:54:29;8.60;90.60
19622;DHT22;9958;33.196;-97.114;2022-12-04T13:57:17;8.70;90.30
19622;DHT22;9958;33.196;-97.114;2022-12-04T13:59:46;8.70;90.60
19622;DHT22;9958;33.196;-97.114;2022-12-04T14:02:25;8.70;91.10
19622;DHT22;9958;33.196;-97.114;2022-12-04T14:04:58;8.70;91.10
19622;DHT22;9958;33.196;-97.114;2022-12-04T14:07:30;8.70;90.90
19622;DHT22;9958;33.196;-97.114;2022-12-04T14:10:02;8.80;90.60
19622;DHT22;9958;33.196;-97.114;2022-12-04T14:12:34;8.80;90.80
19622;DHT22;9958;33.196;-97.114;2022-12-04T14:15:06;8.90;91.10
19622;DHT22;9958;33.196;-97.114;2022-12-04T14:17:36;8.90;91.40
19622;DHT22;9958;33.196;-97.114;2022-12-04T14:20:07;8.90;91.30
19622;DHT22;9958;33.196;-97.114;2022-12-04T14:22:41;8.90;91.80
19622;DHT22;9958;33.196;-97.114;2022-12-04T14:25:33;8.90;91.80
19622;DHT22;9958;33.196;-97.114;2022-12-04T14:28:13;9.00;91.60
19622;DHT22;9958;33.196;-97.114;2022-12-04T14:31:02;9.00;91.50
19622;DHT22;9958;33.196;-97.114;2022-12-04T14:33:37;9.10;91.20
19622;DHT22;9958;33.196;-97.114;2022-12-04T14:36:08;9.10;91.40
19622;DHT22;9958;33.196;-97.114;2022-12-04T14:38:37;9.20;91.50
19622;DHT22;9958;33.196;-97.114;2022-12-04T14:41:08;9.30;91.40
19622;DHT22;9958;33.196;-97.114;2022-12-04T14:43:38;9.40;91.50
19622;DHT22;9958;33.196;-97.114;2022-12-04T14:46:13;9.40;91.60
19622;DHT22;9958;33.196;-97.114;2022-12-04T14:48:48;9.50;91.70
19622;DHT22;9958;33.196;-97.114;2022-12-04T14:51:23;9.60;92.00
19622;DHT22;9958;33.196;-97.114;2022-12-04T14:54:01;9.70;91.90
19622;DHT22;9958;33.196;-97.114;2022-12-04T14:56:48;9.80;91.90
19622;DHT22;9958;33.196;-97.114;2022-12-04T14:59:20;9.90;91.90
19622;DHT22;9958;33.196;-97.114;2022-12-04T15:01:49;9.90;91.70
19622;DHT22;9958;33.196;-97.114;2022-12-04T15:04:22;10.00;91.10
19622;DHT22;9958;33.196;-97.114;2022-12-04T15:06:53;10.00;91.10
19622;DHT22;9958;33.196;-97.114;2022-12-04T15:09:22;10.10;91.50
19622;DHT22;9958;33.196;-97.114;2022-12-04T15:12:17;10.20;92.30
19622;DHT22;9958;33.196;-97.114;2022-12-04T15:15:10;10.20;92.20
19622;DHT22;9958;33.196;-97.114;2022-12-04T15:17:40;10.30;92.20
19622;DHT22;9958;33.196;-97.114;2022-12-04T15:20:12;10.40;92.50
19622;DHT22;9958;33.196;-97.114;2022-12-04T15:22:42;10.50;92.50
19622;DHT22;9958;33.196;-97.114;2022-12-04T15:25:18;10.50;92.40
19622;DHT22;9958;33.196;-97.114;2022-12-04T15:27:51;10.60;92.80
19622;DHT22;9958;33.196;-97.114;2022-12-04T15:30:22;10.60;92.10
19622;DHT22;9958;33.196;-97.114;2022-12-04T15:32:51;10.70;92.90
19622;DHT22;9958;33.196;-97.114;2022-12-04T15:35:22;10.70;92.40
19622;DHT22;9958;33.196;-97.114;2022-12-04T15:37:53;10.70;92.40
19622;DHT22;9958;33.196;-97.114;2022-12-04T15:40:24;10.70;94.10
19622;DHT22;9958;33.196;-97.114;2022-12-04T15:42:58;10.70;93.70
19622;DHT22;9958;33.196;-97.114;2022-12-04T15:45:33;10.70;94.80
19622;DHT22;9958;33.196;-97.114;2022-12-04T15:48:01;10.70;96.20
19622;DHT22;9958;33.196;-97.114;2022-12-04T15:50:30;10.70;96.80
19622;DHT22;9958;33.196;-97.114;2022-12-04T15:53:01;10.70;97.30
19622;DHT22;9958;33.196;-97.114;2022-12-04T15:55:32;10.70;97.60
19622;DHT22;9958;33.196;-97.114;2022-12-04T15:58:05;10.70;96.90
19622;DHT22;9958;33.196;-97.114;2022-12-04T16:00:36;10.70;95.40
19622;DHT22;9958;33.196;-97.114;2022-12-04T16:03:20;10.70;95.00
19622;DHT22;9958;33.196;-97.114;2022-12-04T16:05:49;10.70;95.50
19622;DHT22;9958;33.196;-97.114;2022-12-04T16:08:30;10.80;95.80
19622;DHT22;9958;33.196;-97.114;2022-12-04T16:11:01;10.90;95.30